Grenora, ND (58845)

2:07 AM CDT on June 24, 2018 (GMT -0500)
South of Alamo, ND | | Change Station
Active Advisory: Flood Warning

Elev 2116 ft 48.50 °N, 103.55 °W | Updated 5 minutes ago

Mostly Cloudy
Mostly Cloudy
61.8 °F
Feels Like 61.8 °F
N
2
Wind Variable Wind from ESE
Gusts 3.0 mph

Today
High -- | Low -- °F
--% Chance of Precip.
Yesterday
High -- | Low -- °F
Precip. -- in
Pressure 29.81 in
Visibility 10.0 miles
Clouds Mostly Cloudy 10000 ft
Overcast 12000 ft
Dew Point 59 °F
Humidity 90%
Rainfall 0.00 in
Snow Depth Not available.
5:54 AM 10:02 PM
Waxing Gibbous, 86% visible
METAR KISN 240652Z AUTO 11004KT 10SM BKN100 OVC120 18/16 A2983 RMK AO2 SLP093 T01830156
Pressure 29.81 in
Visibility 10.0 miles
Clouds Mostly Cloudy 10000 ft
Overcast 12000 ft
Dew Point 59 °F
Humidity 90%
Rainfall 0.00 in
Snow Depth Not available.
5:54 AM 10:02 PM
Waxing Gibbous, 86% visible
METAR KISN 240652Z AUTO 11004KT 10SM BKN100 OVC120 18/16 A2983 RMK AO2 SLP093 T01830156

Get Your Daily Forecast Email!

Thanks for signing up!

Be on the lookout for a verification email in your inbox.

You'll start receiving severe weather alerts in your inbox..

×

10-Day Weather Forecast

Almanac

Astronomy

Jun. 24, 2018 Rise Set
Actual Time
Civil Twilight
Nautical Twilight
Astronomical Twilight
Moon
Length of Visible Light
Length of Day
Tomorrow will be .
, % of the Moon is Illuminated

Today's Extremes

State Highs State Lows

Community

WunderPhotos

Category 6

Welcome to Category 6. This is the collective home for Weather Underground's featured writeups by Dr. Jeff Masters (right), Bob Henson (left), Chris Burt, and other regular contributors.

Nearby

Air Quality

  Air Quality AQ Index Pollutant
Not available.

Snow Depth

Station Depth Elevation

Earthquake Activity

City Distance Mag. Time & Date
Minimum magnitude displayed is 2.5.

Coastal Water Temperatures

Place Temperature

Stations

Nearby Weather Stations

Station Location Temp. Windchill Dew Point Humidity Wind Precip. Elev Updated Type
                   

Watches & Warnings

Flood Warning
Issued: 2:49 PM CDT Jun. 22, 2018 – National Weather Service

The Flood Warning continues for
the Missouri River near Williston.
* Until further notice.
* At 1:45 PM Friday the stage was 25.3 feet.
* Flood stage is 22.0 feet.
* Moderate flooding is occurring and major flooding is forecast.
* Forecast... the river will continue rising to near 26.1 feet by
Monday morning then begin falling.
* Impact... at 28.0 feet... water backing up into the little Muddy river
begins to cover 54th street northwest on the east side of
Williston.



             Fld observed forecasts (7am)
location stg stg day/time Sat sun Mon Tue Wed

Missouri River basin
Williston 22 25.3 Fri 2 PM 25.7 26.0 26.1 26.0 25.9


Lat... Lon 4801 10404 4815 10366 4807 10337 4795 10347
      4807 10366 4775 10404



Ajs